createdAt,value
2017-09-12T00:00:02.118Z,9.76
2017-09-12T00:00:42.698Z,9.74
2017-09-12T00:01:23.277Z,9.81
2017-09-12T00:02:03.860Z,9.74
2017-09-12T00:04:01.587Z,9.65
2017-09-12T00:04:42.167Z,9.64
2017-09-12T00:05:22.743Z,9.76
2017-09-12T00:06:03.326Z,9.61
2017-09-12T00:06:43.907Z,9.64
2017-09-12T00:07:24.486Z,9.56
2017-09-12T00:08:05.053Z,9.6
2017-09-12T00:08:45.631Z,9.53
2017-09-12T00:09:26.213Z,9.51
2017-09-12T00:10:06.785Z,9.56
2017-09-12T00:10:47.369Z,9.48
2017-09-12T00:11:27.934Z,9.5
2017-09-12T00:12:08.499Z,9.53
2017-09-12T00:12:49.076Z,9.54
2017-09-12T00:13:29.658Z,9.54
2017-09-12T00:14:10.229Z,9.54
2017-09-12T00:14:50.803Z,9.53
2017-09-12T00:15:31.386Z,9.5
2017-09-12T00:16:11.970Z,9.57
2017-09-12T00:17:07.059Z,9.48
2017-09-12T00:17:47.624Z,9.48
2017-09-12T00:18:28.200Z,9.5
2017-09-12T00:19:08.785Z,9.57
2017-09-12T00:19:49.365Z,9.5
2017-09-12T00:20:29.943Z,9.51
2017-09-12T00:21:10.533Z,9.53
2017-09-12T00:21:51.106Z,9.43
2017-09-12T00:22:31.688Z,9.51
2017-09-12T00:23:12.261Z,9.5
2017-09-12T00:23:52.847Z,9.5
2017-09-12T00:24:33.429Z,9.46
2017-09-12T00:25:14.007Z,9.38
2017-09-12T00:25:54.588Z,9.42
2017-09-12T00:26:35.172Z,9.4
2017-09-12T00:27:15.746Z,9.38
2017-09-12T00:27:56.325Z,9.26
2017-09-12T00:28:36.913Z,9.24
2017-09-12T00:29:17.480Z,9.33
2017-09-12T00:29:58.058Z,9.18
2017-09-12T00:30:38.635Z,9.2
2017-09-12T00:31:19.219Z,9.21
2017-09-12T00:31:59.802Z,9.18
2017-09-12T00:32:40.383Z,9.13
2017-09-12T00:33:20.965Z,9.05
2017-09-12T00:34:16.070Z,9.1
2017-09-12T00:34:56.644Z,8.99
2017-09-12T00:35:37.208Z,8.96
2017-09-12T00:36:17.793Z,9.02
2017-09-12T00:36:58.373Z,8.98
2017-09-12T00:37:38.953Z,8.95
2017-09-12T00:38:19.534Z,9.05
2017-09-12T00:39:00.112Z,9.02
2017-09-12T00:39:40.697Z,8.99
2017-09-12T00:40:21.275Z,8.94
2017-09-12T00:41:01.852Z,9.02
2017-09-12T00:41:42.431Z,8.96
2017-09-12T00:42:23.016Z,8.99
2017-09-12T00:43:03.590Z,8.89
2017-09-12T00:43:44.173Z,8.96
2017-09-12T00:44:24.747Z,8.8
2017-09-12T00:45:05.323Z,8.89
2017-09-12T00:45:45.910Z,8.86
2017-09-12T00:46:26.487Z,8.84
2017-09-12T00:47:07.065Z,8.8
2017-09-12T00:47:47.640Z,8.84
2017-09-12T00:48:28.227Z,8.89
2017-09-12T00:49:08.809Z,8.86
2017-09-12T00:49:49.379Z,8.83
2017-09-12T00:50:29.961Z,8.79
2017-09-12T00:51:10.542Z,8.83
2017-09-12T00:51:51.122Z,8.86
2017-09-12T00:52:31.702Z,8.83
2017-09-12T00:53:12.287Z,8.79
2017-09-12T00:53:52.868Z,8.81
2017-09-12T00:54:33.436Z,8.91
2017-09-12T00:55:14.017Z,8.81
2017-09-12T00:55:54.602Z,8.81
2017-09-12T00:56:35.180Z,8.92
2017-09-12T00:57:15.761Z,8.83
2017-09-12T00:57:56.334Z,8.84
2017-09-12T00:58:36.917Z,8.91
2017-09-12T00:59:17.498Z,8.91
2017-09-12T00:59:58.072Z,8.95
2017-09-12T01:00:38.651Z,8.98
2017-09-12T01:01:19.237Z,8.91
2017-09-12T01:01:59.824Z,8.98
2017-09-12T01:02:40.395Z,8.96
2017-09-12T01:03:20.981Z,8.99
2017-09-12T01:04:01.557Z,8.98
2017-09-12T01:04:42.135Z,8.98
2017-09-12T01:05:22.720Z,8.98
2017-09-12T01:06:03.300Z,8.95
2017-09-12T01:06:43.881Z,8.95
2017-09-12T01:07:24.460Z,8.94
2017-09-12T01:08:05.037Z,8.94
2017-09-12T01:08:45.612Z,8.92
2017-09-12T01:09:26.199Z,8.92
2017-09-12T01:10:06.779Z,8.94
2017-09-12T01:10:47.357Z,8.98
2017-09-12T01:11:27.936Z,8.94
2017-09-12T01:12:08.524Z,8.94
2017-09-12T01:12:49.104Z,8.94
2017-09-12T01:13:29.689Z,8.94
2017-09-12T01:14:10.269Z,8.84
2017-09-12T01:14:50.849Z,8.92
2017-09-12T01:15:31.425Z,8.79
2017-09-12T01:16:12.012Z,8.8
2017-09-12T01:16:52.591Z,8.83
2017-09-12T01:17:33.162Z,8.84
2017-09-12T01:18:13.727Z,8.84
2017-09-12T01:18:54.307Z,8.76
2017-09-12T01:19:34.878Z,8.79
2017-09-12T01:20:15.470Z,8.74
2017-09-12T01:20:56.037Z,8.76
2017-09-12T01:21:36.601Z,8.73
2017-09-12T01:22:17.172Z,8.79
2017-09-12T01:22:57.750Z,8.76
2017-09-12T01:23:38.342Z,8.73
2017-09-12T01:24:18.922Z,8.77
2017-09-12T01:24:59.511Z,8.77
2017-09-12T01:25:40.090Z,8.77
2017-09-12T01:26:20.671Z,8.79
2017-09-12T01:27:01.242Z,8.77
2017-09-12T01:27:41.833Z,8.79
2017-09-12T01:28:22.399Z,8.73
2017-09-12T01:29:02.976Z,8.81
2017-09-12T01:29:43.541Z,8.86
2017-09-12T01:30:24.138Z,8.84
2017-09-12T01:31:04.715Z,8.83
2017-09-12T01:31:45.292Z,8.81
2017-09-12T01:32:25.870Z,8.91
2017-09-12T01:33:06.454Z,8.94
2017-09-12T01:33:47.039Z,8.95
2017-09-12T01:34:27.627Z,8.99
2017-09-12T01:35:08.213Z,9.08
2017-09-12T01:35:48.791Z,9.15
2017-09-12T01:36:29.379Z,9.13
2017-09-12T01:37:09.937Z,9.17
2017-09-12T01:37:50.510Z,9.13
2017-09-12T01:38:31.089Z,9.13
2017-09-12T01:39:11.668Z,9.2
2017-09-12T01:39:52.239Z,9.21
2017-09-12T01:40:32.823Z,9.17
2017-09-12T01:41:13.404Z,9.2
2017-09-12T01:41:53.975Z,9.11
2017-09-12T01:42:34.551Z,9.17
2017-09-12T01:43:15.141Z,9.26
2017-09-12T01:43:55.722Z,9.24
2017-09-12T01:44:36.300Z,9.21
2017-09-12T01:45:16.871Z,9.2
2017-09-12T01:45:57.452Z,9.21
2017-09-12T01:46:38.025Z,9.17
2017-09-12T01:47:18.602Z,9.15
2017-09-12T01:47:59.178Z,9.23
2017-09-12T01:48:39.760Z,9.21
2017-09-12T01:49:20.349Z,9.21
2017-09-12T01:50:00.923Z,9.14
2017-09-12T01:50:41.502Z,9.17
2017-09-12T01:51:22.084Z,9.13
2017-09-12T01:52:02.659Z,8.99
2017-09-12T01:52:43.236Z,8.98
2017-09-12T01:53:23.824Z,9.02
2017-09-12T01:54:04.400Z,8.99
2017-09-12T01:54:44.980Z,8.98
2017-09-12T01:55:25.554Z,8.92
2017-09-12T01:56:06.145Z,8.99
2017-09-12T01:56:46.724Z,8.98
2017-09-12T01:57:27.306Z,8.94
2017-09-12T01:58:07.887Z,8.91
2017-09-12T01:58:48.457Z,8.86
2017-09-12T01:59:29.042Z,8.87
2017-09-12T02:00:09.620Z,8.81
2017-09-12T02:00:50.195Z,8.86
2017-09-12T02:01:30.781Z,8.86
2017-09-12T02:02:11.355Z,8.79
2017-09-12T02:02:51.939Z,8.86
2017-09-12T02:03:32.506Z,8.83
2017-09-12T02:04:13.079Z,8.87
2017-09-12T02:04:53.655Z,8.83
2017-09-12T02:05:34.230Z,8.91
2017-09-12T02:06:14.804Z,8.92
2017-09-12T02:06:55.384Z,9.02
2017-09-12T02:07:35.970Z,8.99
2017-09-12T02:08:16.532Z,9.02
2017-09-12T02:08:57.114Z,9.01
2017-09-12T02:09:37.693Z,9.08
2017-09-12T02:10:18.272Z,9.21
2017-09-12T02:10:58.847Z,9.18
2017-09-12T02:11:39.431Z,9.29
2017-09-12T02:12:20.005Z,9.35
2017-09-12T02:13:00.591Z,9.36
2017-09-12T02:13:41.163Z,9.36
2017-09-12T02:14:21.741Z,9.33
2017-09-12T02:15:02.311Z,9.42
2017-09-12T02:15:42.890Z,9.39
2017-09-12T02:16:23.463Z,9.42
2017-09-12T02:17:04.049Z,9.46
2017-09-12T02:17:44.631Z,9.47
2017-09-12T02:18:25.214Z,9.48
2017-09-12T02:19:05.792Z,9.47
2017-09-12T02:19:46.378Z,9.47
2017-09-12T02:20:26.964Z,9.47
2017-09-12T02:21:07.541Z,9.5
2017-09-12T02:21:48.110Z,9.47
2017-09-12T02:22:28.687Z,9.53
2017-09-12T02:23:09.263Z,9.43
2017-09-12T02:23:49.831Z,9.54
2017-09-12T02:24:30.416Z,9.54
2017-09-12T02:25:11.014Z,9.53
2017-09-12T02:25:51.596Z,9.53
2017-09-12T02:26:32.178Z,9.6
2017-09-12T02:27:12.757Z,9.56
2017-09-12T02:27:53.337Z,9.58
2017-09-12T02:28:33.912Z,9.57
2017-09-12T02:29:14.487Z,9.56
2017-09-12T02:29:55.062Z,9.53
2017-09-12T02:30:35.652Z,9.64
2017-09-12T02:31:16.231Z,9.57
2017-09-12T02:31:56.817Z,9.58
2017-09-12T02:32:37.405Z,9.57
2017-09-12T02:33:17.969Z,9.56
2017-09-12T02:33:58.547Z,9.54
2017-09-12T02:34:39.141Z,9.54
2017-09-12T02:35:19.711Z,9.48
2017-09-12T02:36:00.292Z,9.57
2017-09-12T02:36:40.863Z,9.54
2017-09-12T02:37:21.451Z,9.53
2017-09-12T02:38:02.027Z,9.57
2017-09-12T02:38:42.608Z,9.54
2017-09-12T02:39:23.192Z,9.6
2017-09-12T02:40:03.768Z,9.56
2017-09-12T02:40:44.353Z,9.53
2017-09-12T02:41:24.924Z,9.56
2017-09-12T02:42:05.501Z,9.56
2017-09-12T02:42:46.085Z,9.58
2017-09-12T02:43:26.662Z,9.56
2017-09-12T02:44:07.249Z,9.54
2017-09-12T02:44:47.820Z,9.6
2017-09-12T02:45:28.401Z,9.57
2017-09-12T02:46:08.982Z,9.57
2017-09-12T02:46:49.567Z,9.6
2017-09-12T02:47:30.126Z,9.64
2017-09-12T02:48:10.704Z,9.69
2017-09-12T02:48:51.279Z,9.71
2017-09-12T02:49:31.866Z,9.74
2017-09-12T02:50:12.444Z,9.74
2017-09-12T02:50:53.022Z,9.74
2017-09-12T02:51:33.606Z,9.83
2017-09-12T02:52:14.185Z,9.72
2017-09-12T02:52:54.761Z,9.83
2017-09-12T02:53:35.339Z,9.78
2017-09-12T02:54:15.907Z,9.79
2017-09-12T02:54:56.480Z,9.84
2017-09-12T02:55:37.045Z,9.74
2017-09-12T02:56:17.621Z,9.86
2017-09-12T02:56:58.210Z,9.87
2017-09-12T02:57:38.786Z,9.83
2017-09-12T02:58:19.365Z,9.86
2017-09-12T02:58:59.945Z,9.9
2017-09-12T02:59:40.515Z,9.94
2017-09-12T03:00:21.085Z,9.93
2017-09-12T03:01:01.672Z,9.86
2017-09-12T03:01:42.258Z,9.93
2017-09-12T03:02:22.841Z,9.91
2017-09-12T03:03:03.418Z,9.9
2017-09-12T03:03:43.990Z,9.89
2017-09-12T03:04:24.572Z,9.9
2017-09-12T03:05:05.162Z,9.93
2017-09-12T03:05:45.735Z,9.89
2017-09-12T03:06:26.310Z,9.89
2017-09-12T03:07:06.892Z,9.9
2017-09-12T03:07:47.472Z,9.93
2017-09-12T03:08:28.045Z,9.9
2017-09-12T03:09:08.631Z,9.89
2017-09-12T03:09:49.215Z,9.9
2017-09-12T03:10:29.797Z,9.89
2017-09-12T03:11:10.376Z,9.89
2017-09-12T03:11:50.951Z,9.9
2017-09-12T03:12:31.531Z,9.9
2017-09-12T03:13:12.111Z,9.93
2017-09-12T03:13:52.690Z,9.9
2017-09-12T03:14:33.273Z,9.86
2017-09-12T03:15:13.865Z,9.9
2017-09-12T03:15:54.443Z,9.9
2017-09-12T03:16:35.023Z,9.96
2017-09-12T03:17:15.607Z,9.91
2017-09-12T03:17:56.179Z,9.9
2017-09-12T03:18:36.766Z,9.9
2017-09-12T03:19:17.347Z,9.91
2017-09-12T03:19:57.922Z,9.94
2017-09-12T03:20:38.507Z,9.97
2017-09-12T03:21:19.092Z,9.94
2017-09-12T03:21:59.669Z,9.91
2017-09-12T03:22:40.243Z,9.93
2017-09-12T03:23:20.826Z,9.94
2017-09-12T03:24:01.403Z,9.93
2017-09-12T03:24:41.986Z,9.97
2017-09-12T03:26:39.726Z,9.97
2017-09-12T03:27:20.308Z,9.93
2017-09-12T03:28:00.892Z,9.97
2017-09-12T03:28:41.468Z,9.91
2017-09-12T03:29:22.043Z,9.91
2017-09-12T03:30:02.625Z,9.89
2017-09-12T03:30:43.211Z,9.9
2017-09-12T03:31:23.793Z,9.91
2017-09-12T03:32:04.376Z,9.94
2017-09-12T03:32:44.957Z,9.97
2017-09-12T03:33:25.529Z,9.89
2017-09-12T03:34:06.109Z,9.9
2017-09-12T03:34:46.675Z,9.87
2017-09-12T03:35:27.258Z,9.9
2017-09-12T03:36:07.843Z,9.9
2017-09-12T03:36:48.418Z,9.93
2017-09-12T03:37:28.981Z,9.87
2017-09-12T03:38:09.565Z,9.86
2017-09-12T03:38:50.151Z,9.9
2017-09-12T03:39:30.734Z,9.9
2017-09-12T03:40:11.303Z,9.89
2017-09-12T03:40:51.889Z,9.89
2017-09-12T03:41:32.472Z,9.89
2017-09-12T03:42:13.052Z,9.84
2017-09-12T03:42:53.634Z,9.84
2017-09-12T03:43:34.206Z,9.91
2017-09-12T03:44:14.777Z,9.89
2017-09-12T03:44:55.353Z,9.93
2017-09-12T03:45:35.930Z,9.89
2017-09-12T03:46:16.508Z,9.84
2017-09-12T03:46:57.076Z,9.9
2017-09-12T03:47:37.655Z,9.83
2017-09-12T03:48:18.234Z,9.87
2017-09-12T03:48:58.806Z,9.87
2017-09-12T03:49:39.389Z,9.89
2017-09-12T03:50:19.983Z,9.86
2017-09-12T03:51:00.564Z,9.83
2017-09-12T03:51:41.136Z,9.91
2017-09-12T03:52:21.722Z,9.81
2017-09-12T03:53:02.291Z,9.81
2017-09-12T03:53:42.877Z,9.89
2017-09-12T03:54:23.465Z,9.86
2017-09-12T03:55:04.049Z,9.86
2017-09-12T03:55:44.625Z,9.84
2017-09-12T03:56:25.205Z,9.76
2017-09-12T03:57:05.775Z,9.72
2017-09-12T03:57:46.357Z,9.79
2017-09-12T03:58:26.947Z,9.81
2017-09-12T03:59:07.516Z,9.84
2017-09-12T03:59:48.097Z,9.81
2017-09-12T04:01:40.726Z,9.89
2017-09-12T04:02:21.304Z,9.89
2017-09-12T04:03:01.878Z,9.9
2017-09-12T04:03:42.458Z,9.93
2017-09-12T04:04:23.028Z,9.83
2017-09-12T04:05:03.611Z,9.91
2017-09-12T04:05:44.178Z,9.9
2017-09-12T04:06:24.762Z,9.9
2017-09-12T04:07:05.328Z,9.91
2017-09-12T04:07:45.887Z,9.91
2017-09-12T04:08:26.466Z,9.9
2017-09-12T04:09:07.042Z,9.94
2017-09-12T04:09:47.627Z,9.91
2017-09-12T04:10:28.191Z,9.96
2017-09-12T04:11:08.773Z,10.02
2017-09-12T04:11:49.339Z,9.99
2017-09-12T04:12:29.924Z,9.97
2017-09-12T04:13:10.489Z,10.01
2017-09-12T04:13:51.069Z,9.99
2017-09-12T04:14:31.639Z,9.94
2017-09-12T04:15:12.232Z,10.02
2017-09-12T04:15:52.791Z,10.01
2017-09-12T04:16:33.364Z,9.93
2017-09-12T04:17:13.933Z,9.94
2017-09-12T04:17:54.502Z,9.91
2017-09-12T04:18:35.077Z,9.97
2017-09-12T04:19:15.663Z,9.94
2017-09-12T04:19:56.235Z,9.9
2017-09-12T04:20:36.815Z,9.94
2017-09-12T04:21:17.393Z,9.94
2017-09-12T04:21:57.970Z,9.93
2017-09-12T04:22:38.554Z,9.9
2017-09-12T04:23:19.129Z,9.9
2017-09-12T04:23:59.706Z,9.91
2017-09-12T04:24:40.289Z,9.93
2017-09-12T04:25:20.873Z,9.81
2017-09-12T04:26:01.439Z,9.96
2017-09-12T04:26:42.016Z,9.87
2017-09-12T04:27:22.596Z,9.89
2017-09-12T04:28:03.169Z,9.91
2017-09-12T04:28:43.741Z,9.93
2017-09-12T04:29:24.308Z,9.96
2017-09-12T04:30:04.887Z,9.87
2017-09-12T04:30:45.474Z,9.94
2017-09-12T04:31:26.047Z,9.86
2017-09-12T04:32:06.630Z,9.93
2017-09-12T04:32:47.208Z,9.91
2017-09-12T04:33:27.788Z,9.91
2017-09-12T04:34:08.364Z,9.9
2017-09-12T04:34:48.947Z,9.96
2017-09-12T04:35:29.518Z,9.91
2017-09-12T04:36:10.103Z,9.86
2017-09-12T04:36:50.688Z,9.9
2017-09-12T04:37:31.256Z,9.9
2017-09-12T04:38:11.842Z,9.86
2017-09-12T04:38:52.412Z,9.96
2017-09-12T04:39:32.995Z,9.87
2017-09-12T04:40:13.578Z,9.87
2017-09-12T04:40:54.152Z,9.89
2017-09-12T04:41:34.737Z,9.9
2017-09-12T04:42:15.321Z,9.84
2017-09-12T04:42:55.896Z,9.87
2017-09-12T04:43:36.483Z,9.9
2017-09-12T04:44:17.050Z,9.87
2017-09-12T04:44:57.638Z,9.87
2017-09-12T04:45:38.206Z,9.9
2017-09-12T04:46:18.791Z,9.93
2017-09-12T04:46:59.377Z,9.97
2017-09-12T04:47:39.955Z,9.93
2017-09-12T04:48:21.535Z,9.97
2017-09-12T04:49:02.116Z,9.96
2017-09-12T04:49:42.700Z,9.93
2017-09-12T04:50:23.273Z,9.97
2017-09-12T04:51:03.860Z,10.07
2017-09-12T04:51:44.446Z,10.15
2017-09-12T04:52:25.026Z,10.07
2017-09-12T04:53:05.601Z,10.08
2017-09-12T04:53:46.183Z,10.12
2017-09-12T04:54:26.759Z,10.08
2017-09-12T04:55:07.339Z,10.09
2017-09-12T04:55:47.914Z,10.02
2017-09-12T04:56:28.502Z,10.14
2017-09-12T04:57:09.087Z,10.17
2017-09-12T04:57:49.660Z,10.23
2017-09-12T04:58:30.248Z,10.2
2017-09-12T04:59:10.822Z,10.23
2017-09-12T04:59:51.396Z,10.22
2017-09-12T05:00:31.970Z,10.2
2017-09-12T05:01:12.548Z,10.25
2017-09-12T05:01:53.130Z,10.22
2017-09-12T05:02:33.727Z,10.23
2017-09-12T05:03:14.306Z,10.26
2017-09-12T05:03:54.899Z,10.27
2017-09-12T05:04:35.459Z,10.32
2017-09-12T05:05:16.040Z,10.32
2017-09-12T05:05:56.625Z,10.41
2017-09-12T05:06:37.206Z,10.38
2017-09-12T05:07:17.779Z,10.42
2017-09-12T05:07:58.345Z,10.42
2017-09-12T05:08:38.928Z,10.44
2017-09-12T05:09:19.507Z,10.44
2017-09-12T05:10:00.076Z,10.41
2017-09-12T05:10:40.644Z,10.42
2017-09-12T05:11:21.226Z,10.44
2017-09-12T05:12:01.810Z,10.55
2017-09-12T05:12:42.396Z,10.41
2017-09-12T05:13:22.973Z,10.45
2017-09-12T05:14:03.552Z,10.55
2017-09-12T05:14:44.136Z,10.56
2017-09-12T05:15:24.721Z,10.52
2017-09-12T05:16:05.296Z,10.64
2017-09-12T05:16:45.877Z,10.59
2017-09-12T05:17:26.457Z,10.6
2017-09-12T05:18:07.040Z,10.66
2017-09-12T05:18:47.615Z,10.7
2017-09-12T05:19:28.190Z,10.67
2017-09-12T05:20:08.775Z,10.68
2017-09-12T05:20:49.353Z,10.84
2017-09-12T05:21:29.925Z,10.89
2017-09-12T05:22:10.504Z,10.89
2017-09-12T05:22:51.079Z,10.88
2017-09-12T05:23:31.664Z,10.94
2017-09-12T05:24:12.246Z,10.92
2017-09-12T05:24:52.820Z,10.96
2017-09-12T05:25:33.395Z,11.02
2017-09-12T05:26:13.986Z,11.02
2017-09-12T05:26:54.573Z,11.04
2017-09-12T05:27:35.149Z,11.07
2017-09-12T05:28:15.731Z,11.06
2017-09-12T05:28:56.317Z,11.14
2017-09-12T05:29:36.891Z,11.07
2017-09-12T05:30:17.475Z,11.1
2017-09-12T05:30:58.052Z,11.1
2017-09-12T05:31:38.619Z,11.14
2017-09-12T05:32:19.201Z,11.25
2017-09-12T05:32:59.778Z,11.24
2017-09-12T05:33:40.364Z,11.29
2017-09-12T05:34:20.947Z,11.25
2017-09-12T05:35:01.532Z,11.4
2017-09-12T05:35:42.101Z,11.54
2017-09-12T05:36:22.683Z,11.51
2017-09-12T05:37:03.257Z,11.67
2017-09-12T05:37:43.841Z,11.75
2017-09-12T05:38:24.429Z,11.8
2017-09-12T05:39:04.999Z,11.82
2017-09-12T05:39:45.583Z,11.86
2017-09-12T05:40:26.157Z,11.91
2017-09-12T05:41:06.738Z,12.07
2017-09-12T05:41:47.322Z,12.02
2017-09-12T05:42:27.899Z,12.14
2017-09-12T05:43:08.472Z,12.17
2017-09-12T05:43:49.066Z,12.13
2017-09-12T05:44:29.630Z,12.24
2017-09-12T05:45:10.215Z,12.23
2017-09-12T05:45:50.789Z,12.24
2017-09-12T05:46:31.372Z,12.28
2017-09-12T05:47:11.944Z,12.31
2017-09-12T05:47:52.526Z,12.31
2017-09-12T05:48:33.117Z,12.24
2017-09-12T05:49:13.698Z,12.23
2017-09-12T05:49:54.279Z,12.28
2017-09-12T05:50:34.865Z,12.24
2017-09-12T05:51:15.445Z,12.38
2017-09-12T05:51:56.037Z,12.39
2017-09-12T05:52:36.619Z,12.38
2017-09-12T05:53:17.191Z,12.34
2017-09-12T05:53:57.767Z,12.39
2017-09-12T05:54:38.344Z,12.45
2017-09-12T05:55:18.920Z,12.5
2017-09-12T05:55:59.498Z,12.54
2017-09-12T05:56:40.077Z,12.57
2017-09-12T05:57:20.648Z,12.62
2017-09-12T05:58:01.233Z,12.7
2017-09-12T05:58:41.815Z,12.83
2017-09-12T05:59:22.405Z,12.75
2017-09-12T06:00:02.993Z,12.83
2017-09-12T06:00:43.580Z,12.87
2017-09-12T06:01:24.154Z,12.93
2017-09-12T06:02:04.738Z,13.03
2017-09-12T06:02:45.309Z,13.01
2017-09-12T06:03:25.873Z,13.11
2017-09-12T06:04:06.463Z,13.08
2017-09-12T06:04:47.041Z,13.14
2017-09-12T06:05:27.615Z,13.25
2017-09-12T06:06:08.205Z,13.23
2017-09-12T06:06:48.796Z,13.3
2017-09-12T06:07:29.378Z,13.23
2017-09-12T06:08:09.962Z,13.2
2017-09-12T06:08:50.546Z,13.23
2017-09-12T06:09:31.133Z,13.29
2017-09-12T06:10:11.706Z,13.44
2017-09-12T06:10:52.289Z,13.42
2017-09-12T06:11:32.873Z,13.57
2017-09-12T06:12:13.446Z,13.66
2017-09-12T06:12:54.029Z,13.62
2017-09-12T06:13:34.619Z,13.71
2017-09-12T06:14:15.198Z,13.73
2017-09-12T06:14:55.780Z,13.63
2017-09-12T06:15:36.352Z,13.59
2017-09-12T06:16:16.914Z,13.62
2017-09-12T06:16:57.505Z,13.63
2017-09-12T06:17:38.089Z,13.59
2017-09-12T06:18:18.659Z,13.62
2017-09-12T06:18:59.236Z,13.63
2017-09-12T06:19:39.815Z,13.62
2017-09-12T06:20:20.395Z,13.55
2017-09-12T06:21:00.978Z,13.51
2017-09-12T06:21:41.562Z,13.45
2017-09-12T06:22:22.142Z,13.49
2017-09-12T06:23:02.731Z,13.44
2017-09-12T06:23:43.305Z,13.45
2017-09-12T06:24:23.886Z,13.29
2017-09-12T06:25:04.459Z,13.25
2017-09-12T06:25:45.038Z,13.3
2017-09-12T06:26:25.619Z,13.23
2017-09-12T06:27:06.197Z,13.23
2017-09-12T06:27:46.782Z,13.19
2017-09-12T06:28:27.368Z,13.17
2017-09-12T06:29:07.943Z,13.17
2017-09-12T06:29:48.530Z,13.1
2017-09-12T06:30:29.121Z,13.07
2017-09-12T06:31:09.695Z,13.07
2017-09-12T06:31:50.273Z,13.04
2017-09-12T06:32:30.863Z,13.07
2017-09-12T06:33:11.441Z,13.12
2017-09-12T06:33:52.024Z,13.12
2017-09-12T06:34:32.606Z,13.12
2017-09-12T06:35:13.194Z,13.12
2017-09-12T06:36:08.713Z,13.25
2017-09-12T06:36:49.295Z,13.2
2017-09-12T06:37:29.876Z,13.19
2017-09-12T06:38:10.465Z,13.22
2017-09-12T06:38:51.042Z,13.32
2017-09-12T06:39:31.622Z,13.38
2017-09-12T06:40:12.202Z,13.38
2017-09-12T06:40:52.788Z,13.51
2017-09-12T06:41:33.364Z,13.46
2017-09-12T06:42:13.959Z,13.45
2017-09-12T06:42:54.534Z,13.45
2017-09-12T06:43:35.116Z,13.59
2017-09-12T06:44:15.692Z,13.51
2017-09-12T06:44:56.275Z,13.55
2017-09-12T06:45:36.850Z,13.64
2017-09-12T06:46:17.427Z,13.64
2017-09-12T06:46:58.006Z,13.67
2017-09-12T06:47:38.587Z,13.71
2017-09-12T06:49:15.958Z,13.84
2017-09-12T06:51:09.134Z,13.91
2017-09-12T06:51:49.725Z,13.92
2017-09-12T06:52:30.302Z,13.97
2017-09-12T06:53:10.881Z,13.92
2017-09-12T06:53:51.465Z,14.06
2017-09-12T06:54:32.046Z,14.02
2017-09-12T06:55:12.630Z,14.07
2017-09-12T06:55:53.207Z,14.27
2017-09-12T06:56:33.786Z,14.22
2017-09-12T06:57:14.363Z,14.12
2017-09-12T06:57:54.946Z,14.28
2017-09-12T06:58:35.521Z,14.24
2017-09-12T06:59:16.103Z,14.29
2017-09-12T06:59:56.682Z,14.35
2017-09-12T07:00:37.254Z,14.35
2017-09-12T07:01:17.842Z,14.28
2017-09-12T07:01:58.409Z,14.24
2017-09-12T07:02:38.991Z,14.21
2017-09-12T07:03:19.568Z,14.36
2017-09-12T07:04:00.146Z,14.36
2017-09-12T07:04:40.736Z,14.46
2017-09-12T07:05:21.318Z,14.47
2017-09-12T07:06:01.892Z,14.6
2017-09-12T07:06:42.472Z,14.55
2017-09-12T07:07:23.054Z,14.43
2017-09-12T07:08:03.630Z,14.43
2017-09-12T07:08:44.216Z,14.18
2017-09-12T07:09:24.791Z,14.25
2017-09-12T07:10:05.365Z,14.1
2017-09-12T07:10:45.945Z,14.07
2017-09-12T07:11:26.531Z,14.18
2017-09-12T07:12:07.109Z,14.1
2017-09-12T07:12:47.690Z,14.17
2017-09-12T07:13:28.276Z,14.27
2017-09-12T07:14:08.853Z,14.28
2017-09-12T07:14:49.443Z,14.39
2017-09-12T07:15:30.030Z,14.32
2017-09-12T07:16:10.609Z,14.45
2017-09-12T07:16:51.188Z,14.45
2017-09-12T07:17:31.767Z,14.57
2017-09-12T07:18:12.344Z,14.58
2017-09-12T07:18:52.926Z,14.57
2017-09-12T07:19:34.504Z,14.52
2017-09-12T07:20:15.090Z,14.6
2017-09-12T07:20:55.673Z,14.6
2017-09-12T07:21:36.253Z,14.64
2017-09-12T07:22:16.835Z,14.6
2017-09-12T07:22:57.419Z,14.62
2017-09-12T07:23:38.003Z,14.51
2017-09-12T07:24:18.586Z,14.69
2017-09-12T07:24:59.162Z,14.69
2017-09-12T07:25:39.740Z,14.69
2017-09-12T07:26:20.316Z,14.64
2017-09-12T07:27:00.900Z,14.62
2017-09-12T07:27:41.479Z,14.57
2017-09-12T07:28:22.051Z,14.54
2017-09-12T07:29:02.625Z,14.61
2017-09-12T07:29:43.216Z,14.6
2017-09-12T07:30:23.795Z,14.47
2017-09-12T07:31:04.372Z,14.54
2017-09-12T07:31:44.959Z,14.64
2017-09-12T07:32:25.522Z,14.72
2017-09-12T07:33:06.103Z,14.78
2017-09-12T07:33:46.689Z,14.84
2017-09-12T07:34:27.271Z,14.8
2017-09-12T07:35:07.853Z,14.8
2017-09-12T07:35:48.430Z,14.81
2017-09-12T07:36:29.014Z,14.8
2017-09-12T07:37:09.592Z,14.57
2017-09-12T07:37:50.187Z,14.54
2017-09-12T07:38:30.771Z,14.55
2017-09-12T07:39:11.347Z,14.6
2017-09-12T07:39:51.923Z,14.5
2017-09-12T07:40:32.506Z,14.52
2017-09-12T07:41:13.091Z,14.57
2017-09-12T07:41:53.663Z,14.7
2017-09-12T07:42:34.228Z,14.72
2017-09-12T07:43:14.840Z,14.72
2017-09-12T07:43:55.402Z,14.68
2017-09-12T07:44:35.987Z,14.68
2017-09-12T07:45:16.548Z,14.6
2017-09-12T07:45:57.146Z,14.64
2017-09-12T07:46:37.725Z,14.72
2017-09-12T07:47:18.305Z,14.78
2017-09-12T07:47:58.886Z,14.89
2017-09-12T07:48:39.472Z,14.91
2017-09-12T07:49:20.055Z,14.95
2017-09-12T07:50:00.638Z,15.01
2017-09-12T07:50:41.213Z,15.09
2017-09-12T07:51:21.803Z,15.21
2017-09-12T07:52:02.388Z,15.14
2017-09-12T07:52:42.968Z,15.09
2017-09-12T07:53:23.552Z,15.16
2017-09-12T07:54:04.131Z,15.25
2017-09-12T07:54:44.723Z,15.29
2017-09-12T07:55:25.298Z,15.2
2017-09-12T07:56:05.879Z,15.19
2017-09-12T07:56:46.468Z,15.13
2017-09-12T07:57:27.044Z,15.02
2017-09-12T07:58:07.625Z,15.01
2017-09-12T07:58:48.207Z,14.96
2017-09-12T07:59:28.781Z,15.03
2017-09-12T08:00:09.351Z,15.06
2017-09-12T08:00:49.934Z,15.01
2017-09-12T08:01:30.517Z,14.91
2017-09-12T08:02:11.091Z,14.81
2017-09-12T08:02:51.673Z,14.81
2017-09-12T08:03:32.262Z,14.92
2017-09-12T08:04:12.841Z,14.94
2017-09-12T08:04:53.419Z,15.11
2017-09-12T08:05:34.002Z,15.09
2017-09-12T08:06:14.587Z,15.13
2017-09-12T08:06:55.166Z,15.11
2017-09-12T08:07:35.752Z,15.06
2017-09-12T08:08:16.329Z,15.13
2017-09-12T08:08:56.913Z,15.17
2017-09-12T08:09:37.498Z,15.23
2017-09-12T08:10:18.073Z,15.34
2017-09-12T08:10:58.657Z,15.34
2017-09-12T08:11:39.236Z,15.36
2017-09-12T08:12:19.811Z,15.35
2017-09-12T08:13:00.382Z,15.46
2017-09-12T08:13:40.962Z,15.38
2017-09-12T08:14:21.549Z,15.35
2017-09-12T08:15:02.131Z,15.35
2017-09-12T08:15:42.714Z,15.39
2017-09-12T08:16:23.295Z,15.46
2017-09-12T08:17:03.869Z,15.41
2017-09-12T08:17:44.449Z,15.35
2017-09-12T08:18:25.038Z,15.29
2017-09-12T08:19:05.614Z,15.44
2017-09-12T08:19:46.188Z,15.5
2017-09-12T08:20:26.770Z,15.69
2017-09-12T08:21:07.351Z,15.67
2017-09-12T08:21:47.929Z,15.83
2017-09-12T08:22:28.492Z,16.01
2017-09-12T08:23:09.079Z,16.15
2017-09-12T08:23:49.657Z,16.25
2017-09-12T08:24:30.246Z,16.25
2017-09-12T08:25:10.832Z,16.45
2017-09-12T08:25:51.413Z,16.45
2017-09-12T08:26:32.004Z,16.52
2017-09-12T08:27:12.590Z,16.56
2017-09-12T08:27:53.170Z,16.61
2017-09-12T08:28:33.747Z,16.58
2017-09-12T08:29:14.331Z,16.75
2017-09-12T08:29:54.910Z,16.58
2017-09-12T08:30:35.504Z,16.57
2017-09-12T08:31:16.085Z,16.64
2017-09-12T08:31:56.666Z,16.66
2017-09-12T08:32:37.251Z,16.66
2017-09-12T08:33:17.833Z,16.66
2017-09-12T08:33:58.417Z,16.71
2017-09-12T08:34:39.005Z,16.82
2017-09-12T08:35:19.591Z,17.03
2017-09-12T08:36:00.174Z,17.08
2017-09-12T08:36:40.752Z,16.97
2017-09-12T08:37:21.337Z,16.93
2017-09-12T08:38:01.924Z,17.06
2017-09-12T08:38:42.499Z,17.12
2017-09-12T08:39:23.074Z,16.86
2017-09-12T08:40:03.652Z,16.61
2017-09-12T08:40:44.231Z,16.57
2017-09-12T08:41:24.809Z,16.63
2017-09-12T08:42:05.395Z,16.73
2017-09-12T08:42:45.982Z,16.86
2017-09-12T08:43:26.557Z,16.94
2017-09-12T08:44:07.139Z,16.91
2017-09-12T08:44:47.737Z,16.89
2017-09-12T08:45:28.312Z,16.82
2017-09-12T08:46:08.888Z,16.81
2017-09-12T08:46:49.484Z,16.76
2017-09-12T08:47:30.053Z,16.85
2017-09-12T08:48:10.633Z,17
2017-09-12T08:48:51.219Z,17.31
2017-09-12T08:49:31.807Z,17.75
2017-09-12T08:50:12.397Z,18.15
2017-09-12T08:50:52.982Z,18.58
2017-09-12T08:51:33.570Z,19.33
2017-09-12T08:52:14.154Z,20.26
2017-09-12T08:52:54.730Z,20.24
2017-09-12T08:53:35.326Z,20.11
2017-09-12T08:54:15.911Z,19.74
2017-09-12T08:54:56.503Z,19.68
2017-09-12T08:55:37.081Z,19.74
2017-09-12T08:56:17.663Z,19.5
2017-09-12T08:56:58.245Z,19.33
2017-09-12T08:57:38.818Z,19.22
2017-09-12T08:58:19.410Z,19.22
2017-09-12T08:58:59.997Z,19.13
2017-09-12T08:59:40.582Z,19
2017-09-12T09:00:21.160Z,18.78